Time;durP1;ratioP1;P1;durP2;ratioP2;P2;SDS_P1;SDS_P2;PMS_P1;PMS_P2;Temp;Humidity;BMP_temperature;BMP_pressure;BME280_temperature;BME280_humidity;BME280_pressure;Samples;Min_cycle;Max_cycle;Signal;HPM_P1;HPM_P2
2023/12/02 00:02:07;;;;;;;12.13;4.73;;;;;;;-2.62;100.00;100378.44;6052282;28;20033;-77
2023/12/02 00:05:03;;;;;;;17.17;5.00;;;;;;;-2.70;100.00;100377.09;6046351;28;20053;-77
2023/12/02 00:07:58;;;;;;;14.35;4.65;;;;;;;-2.69;100.00;100377.00;6060897;28;20030;-76
2023/12/02 00:10:53;;;;;;;15.07;5.20;;;;;;;-2.61;100.00;100385.28;6068734;28;20033;-77
2023/12/02 00:13:49;;;;;;;16.00;5.60;;;;;;;-2.60;100.00;100375.75;6067114;28;20030;-77
2023/12/02 00:16:44;;;;;;;11.93;4.53;;;;;;;-2.74;100.00;100372.94;6067844;28;20030;-77
2023/12/02 00:19:39;;;;;;;16.40;6.10;;;;;;;-2.72;100.00;100384.97;6063380;28;20030;-77
2023/12/02 00:22:35;;;;;;;16.67;5.30;;;;;;;-2.75;100.00;100377.31;6039575;28;20045;-77
2023/12/02 00:25:30;;;;;;;14.80;4.35;;;;;;;-2.75;100.00;100379.06;6032866;28;20033;-78
2023/12/02 00:28:25;;;;;;;12.55;4.38;;;;;;;-2.65;100.00;100372.53;6043861;28;20026;-77
2023/12/02 00:31:21;;;;;;;15.40;5.43;;;;;;;-2.60;100.00;100375.75;6032490;28;20030;-77
2023/12/02 00:34:16;;;;;;;13.40;4.67;;;;;;;-2.68;100.00;100378.72;6036300;28;20041;-78
2023/12/02 00:37:11;;;;;;;14.50;4.73;;;;;;;-2.61;100.00;100374.91;6037432;28;20037;-77
2023/12/02 00:40:07;;;;;;;16.75;5.50;;;;;;;-2.79;100.00;100375.75;6042539;28;20027;-77
2023/12/02 00:43:03;;;;;;;17.33;5.22;;;;;;;-2.52;100.00;100384.88;6044989;28;20029;-77
2023/12/02 00:45:58;;;;;;;12.63;4.93;;;;;;;-2.66;100.00;100381.22;6036224;28;20038;-78
2023/12/02 00:48:53;;;;;;;11.10;4.47;;;;;;;-2.81;100.00;100387.97;6039176;28;20040;-77
2023/12/02 00:51:49;;;;;;;18.20;5.27;;;;;;;-2.82;100.00;100373.31;6034013;28;20040;-77
2023/12/02 00:54:44;;;;;;;15.27;4.60;;;;;;;-2.80;100.00;100384.44;6041815;28;20032;-77
2023/12/02 00:57:39;;;;;;;12.77;4.47;;;;;;;-2.86;100.00;100384.75;6044367;28;20485;-77
2023/12/02 01:00:35;;;;;;;11.03;4.50;;;;;;;-2.84;100.00;100377.72;6038127;28;20033;-77
2023/12/02 01:03:30;;;;;;;9.90;3.50;;;;;;;-2.85;100.00;100381.22;6039026;28;20081;-77
2023/12/02 01:06:25;;;;;;;12.77;3.70;;;;;;;-2.82;100.00;100386.28;6033477;28;20089;-77
2023/12/02 01:09:21;;;;;;;9.67;3.20;;;;;;;-2.85;100.00;100390.78;6044305;28;20026;-78
2023/12/02 01:12:16;;;;;;;9.43;3.53;;;;;;;-2.89;100.00;100379.69;6036414;28;20026;-77
2023/12/02 01:15:12;;;;;;;12.37;3.43;;;;;;;-2.97;100.00;100386.13;6039119;28;20033;-77
2023/12/02 01:18:07;;;;;;;9.20;3.53;;;;;;;-2.82;100.00;100395.81;6041634;28;20825;-77
2023/12/02 01:21:03;;;;;;;10.27;3.37;;;;;;;-3.07;100.00;100391.72;6018405;28;20085;-77
2023/12/02 01:23:59;;;;;;;6.97;2.88;;;;;;;-2.92;100.00;100405.78;6037175;28;20033;-77
2023/12/02 01:26:54;;;;;;;10.00;3.10;;;;;;;-3.00;100.00;100402.69;6034171;28;20031;-77
2023/12/02 01:29:49;;;;;;;9.00;3.23;;;;;;;-2.89;100.00;100404.78;6034039;28;20327;-78
2023/12/02 01:32:45;;;;;;;10.70;3.88;;;;;;;-3.01;100.00;100412.22;6038692;28;20138;-78
2023/12/02 01:35:40;;;;;;;8.47;3.10;;;;;;;-2.94;100.00;100417.13;6038767;28;20041;-77
2023/12/02 01:38:35;;;;;;;9.37;3.30;;;;;;;-3.07;100.00;100419.41;6041259;28;20025;-77
2023/12/02 01:41:31;;;;;;;9.37;3.70;;;;;;;-3.07;100.00;100414.22;6033721;28;20038;-77
2023/12/02 01:44:27;;;;;;;13.65;3.58;;;;;;;-2.97;100.00;100420.69;6036696;28;20030;-77
2023/12/02 01:47:22;;;;;;;9.95;3.75;;;;;;;-3.05;100.00;100420.19;6037801;28;20108;-77
2023/12/02 01:50:18;;;;;;;10.38;3.88;;;;;;;-3.22;100.00;100405.38;6027063;28;20026;-77
2023/12/02 01:53:15;;;;;;;10.45;4.13;;;;;;;-3.09;100.00;100418.63;6029407;28;20041;-77
2023/12/02 01:56:11;;;;;;;11.38;4.65;;;;;;;-3.13;100.00;100410.19;6041187;28;20034;-78
2023/12/02 01:59:06;;;;;;;17.13;4.97;;;;;;;-3.14;100.00;100420.59;6030066;28;20042;-77
2023/12/02 02:02:02;;;;;;;12.45;4.10;;;;;;;-3.13;100.00;100424.88;6038054;28;20030;-77
2023/12/02 02:04:57;;;;;;;10.20;4.00;;;;;;;-3.13;100.00;100424.88;6068740;28;20117;-77
2023/12/02 02:07:52;;;;;;;11.50;4.63;;;;;;;-3.18;100.00;100411.28;6038434;28;20030;-78
2023/12/02 02:10:57;;;;;;;18.10;5.17;;;;;;;-3.06;100.00;100429.72;6034798;28;20389;-78
2023/12/02 02:13:52;;;;;;;13.77;5.32;;;;;;;-3.09;100.00;100418.63;6032714;28;20022;-78
2023/12/02 02:16:48;;;;;;;16.43;5.93;;;;;;;-3.15;100.00;100405.94;6032967;28;20026;-78
2023/12/02 02:19:43;;;;;;;13.52;5.47;;;;;;;-3.08;100.00;100421.19;6031183;28;20297;-78
2023/12/02 02:22:38;;;;;;;18.50;5.43;;;;;;;-3.20;100.00;100415.66;6029962;28;20038;-78
2023/12/02 02:25:34;;;;;;;21.37;5.80;;;;;;;-3.21;100.00;100426.97;6039615;28;20029;-78
2023/12/02 02:28:29;;;;;;;13.80;4.83;;;;;;;-3.25;100.00;100433.19;6041742;28;20048;-78
2023/12/02 02:31:25;;;;;;;16.85;6.68;;;;;;;-3.14;100.00;100434.41;6030910;28;20034;-78
2023/12/02 02:34:20;;;;;;;20.25;5.57;;;;;;;-3.17;100.00;100415.53;6047480;28;20046;-78
2023/12/02 02:37:16;;;;;;;15.13;4.97;;;;;;;-3.14;100.00;100416.25;6036228;28;20038;-78
2023/12/02 02:40:11;;;;;;;17.00;5.27;;;;;;;-3.24;100.00;100394.25;6035391;28;20376;-78
2023/12/02 02:43:07;;;;;;;17.67;5.65;;;;;;;-3.08;100.00;100409.97;6036293;28;20038;-78
2023/12/02 02:46:02;;;;;;;18.33;5.70;;;;;;;-2.92;100.00;100410.13;6029833;28;20064;-78
2023/12/02 02:48:57;;;;;;;16.63;5.53;;;;;;;-3.03;100.00;100398.47;6031403;28;20045;-78
2023/12/02 02:51:53;;;;;;;18.83;7.40;;;;;;;-2.86;100.00;100415.03;6029343;28;20065;-78
2023/12/02 02:54:48;;;;;;;21.23;6.30;;;;;;;-3.22;100.00;100399.34;6030615;28;20466;-77
2023/12/02 02:57:44;;;;;;;20.10;6.13;;;;;;;-3.03;100.00;100415.78;6040919;28;20029;-78
2023/12/02 03:00:39;;;;;;;20.33;6.00;;;;;;;-3.02;100.00;100415.69;6042010;28;20034;-78
2023/12/02 03:03:34;;;;;;;12.83;4.93;;;;;;;-2.88;100.00;100416.84;6043932;28;20026;-78
2023/12/02 03:06:30;;;;;;;13.27;4.83;;;;;;;-3.06;100.00;100405.53;6038882;28;20050;-78
2023/12/02 03:09:25;;;;;;;15.98;6.25;;;;;;;-3.06;100.00;100415.91;6042048;28;20112;-78
2023/12/02 03:12:20;;;;;;;21.20;5.27;;;;;;;-3.14;100.00;100399.84;6035029;28;20034;-78
2023/12/02 03:15:16;;;;;;;21.40;4.70;;;;;;;-3.25;100.00;100408.09;6036816;28;20026;-77
2023/12/02 03:18:11;;;;;;;14.73;4.53;;;;;;;-3.12;100.00;100418.78;6044873;28;20030;-77
2023/12/02 03:21:06;;;;;;;12.83;4.27;;;;;;;-3.17;100.00;100408.63;6031385;28;20030;-78
2023/12/02 03:24:02;;;;;;;15.38;4.47;;;;;;;-3.23;100.00;100410.63;6037887;28;20033;-77
2023/12/02 03:26:57;;;;;;;17.13;4.25;;;;;;;-3.27;100.00;100424.63;6044374;28;20096;-77
2023/12/02 03:29:52;;;;;;;9.57;3.50;;;;;;;-3.27;100.00;100409.94;6040209;28;20046;-77
2023/12/02 03:32:48;;;;;;;13.97;4.10;;;;;;;-3.08;100.00;100425.50;6044018;28;20018;-77
2023/12/02 03:35:43;;;;;;;20.10;5.87;;;;;;;-3.24;100.00;100424.50;6035355;28;20045;-77
2023/12/02 03:38:40;;;;;;;15.83;4.50;;;;;;;-3.25;100.00;100417.63;6041709;28;20085;-77
2023/12/02 03:41:36;;;;;;;16.05;4.75;;;;;;;-3.29;100.00;100416.91;6044377;28;20034;-77
2023/12/02 03:44:31;;;;;;;15.77;4.30;;;;;;;-2.95;100.00;100416.28;6044166;28;20103;-77
2023/12/02 03:47:26;;;;;;;14.10;4.17;;;;;;;-2.96;100.00;100417.19;6040283;28;20120;-77
2023/12/02 03:50:22;;;;;;;13.43;4.30;;;;;;;-3.21;100.00;100414.00;6038824;28;20433;-76
2023/12/02 03:53:17;;;;;;;10.83;4.13;;;;;;;-3.27;100.00;100409.09;6038844;28;20038;-77
2023/12/02 03:56:12;;;;;;;8.37;3.33;;;;;;;-3.01;100.00;100413.94;6029373;28;20804;-76
2023/12/02 03:59:07;;;;;;;13.30;3.60;;;;;;;-3.14;100.00;100400.69;6038303;28;20077;-76
2023/12/02 04:02:03;;;;;;;13.73;4.13;;;;;;;-2.97;100.00;100418.09;6041500;28;20087;-76
2023/12/02 04:04:58;;;;;;;12.33;4.27;;;;;;;-3.13;100.00;100406.72;6039395;28;20033;-76
2023/12/02 04:07:54;;;;;;;12.30;4.22;;;;;;;-3.16;100.00;100417.25;6029318;28;20031;-77
2023/12/02 04:10:49;;;;;;;10.30;3.40;;;;;;;-2.76;100.00;100421.47;6038343;28;20033;-76
2023/12/02 04:13:44;;;;;;;13.27;3.77;;;;;;;-2.52;100.00;100422.94;6043884;28;20033;-76
2023/12/02 04:16:43;;;;;;;14.10;4.17;;;;;;;-2.57;100.00;100415.38;6033089;28;20076;-76
2023/12/02 04:19:38;;;;;;;15.18;4.35;;;;;;;-2.67;100.00;100411.53;6034433;28;20106;-76
2023/12/02 04:22:33;;;;;;;16.63;4.57;;;;;;;-2.95;100.00;100416.28;6036856;28;20039;-76
2023/12/02 04:25:29;;;;;;;14.23;4.20;;;;;;;-2.78;100.00;100421.56;6035844;28;20038;-76
2023/12/02 04:28:24;;;;;;;11.90;4.70;;;;;;;-2.88;100.00;100420.28;6047190;28;20523;-76
2023/12/02 04:31:19;;;;;;;17.27;4.37;;;;;;;-3.03;100.00;100433.94;6027117;28;20076;-76
2023/12/02 04:34:15;;;;;;;14.85;4.93;;;;;;;-3.08;100.00;100416.00;6044678;28;20084;-76
2023/12/02 04:37:12;;;;;;;17.70;5.82;;;;;;;-2.93;100.00;100435.19;6040208;28;20362;-76
2023/12/02 04:40:11;;;;;;;16.27;4.72;;;;;;;-2.89;100.00;100431.56;6045165;28;20038;-76
2023/12/02 04:43:06;;;;;;;19.33;5.47;;;;;;;-3.03;100.00;100428.75;6038483;28;20038;-76
2023/12/02 04:46:01;;;;;;;13.97;4.17;;;;;;;-2.93;100.00;100436.94;6045489;28;20034;-77
2023/12/02 04:48:57;;;;;;;12.43;4.60;;;;;;;-2.96;100.00;100431.91;6042674;28;20057;-77
2023/12/02 04:51:53;;;;;;;20.15;5.18;;;;;;;-2.70;100.00;100436.78;6029807;28;20117;-77
2023/12/02 04:54:49;;;;;;;19.55;5.80;;;;;;;-2.90;100.00;100419.50;6035713;28;20113;-77
2023/12/02 04:57:45;;;;;;;13.40;4.50;;;;;;;-2.92;100.00;100426.53;6038092;28;20103;-77
2023/12/02 05:00:40;;;;;;;19.63;6.10;;;;;;;-2.90;100.00;100437.66;6039593;28;20061;-77
2023/12/02 05:03:36;;;;;;;17.77;5.27;;;;;;;-2.92;100.00;100436.03;6038166;28;20029;-77
2023/12/02 05:06:31;;;;;;;19.07;5.07;;;;;;;-2.97;100.00;100433.66;6035878;28;20112;-76
2023/12/02 05:09:27;;;;;;;21.45;6.78;;;;;;;-2.91;100.00;100443.78;6041694;28;20030;-77
2023/12/02 05:12:22;;;;;;;23.60;6.37;;;;;;;-2.92;100.00;100447.25;6033343;28;20030;-76
2023/12/02 05:15:17;;;;;;;26.27;6.20;;;;;;;-3.09;100.00;100435.03;6027444;28;20505;-76
2023/12/02 05:18:12;;;;;;;12.83;4.07;;;;;;;-2.96;100.00;100456.06;6038650;28;20288;-77
2023/12/02 05:21:11;;;;;;;11.40;3.90;;;;;;;-2.98;100.00;100464.84;6039239;28;20026;-76
2023/12/02 05:24:08;;;;;;;11.10;4.22;;;;;;;-2.94;100.00;100464.66;6039743;28;20110;-76
2023/12/02 05:27:03;;;;;;;15.50;4.38;;;;;;;-3.02;100.00;100453.78;6036917;28;20112;-76
2023/12/02 05:29:59;;;;;;;16.80;5.13;;;;;;;-2.73;100.00;100468.03;6032401;28;20598;-76
2023/12/02 05:32:55;;;;;;;16.95;5.38;;;;;;;-2.88;100.00;100456.59;6041233;28;20095;-76
2023/12/02 05:35:50;;;;;;;12.70;4.43;;;;;;;-2.78;100.00;100460.47;6033254;28;20069;-76
2023/12/02 05:38:46;;;;;;;14.15;4.13;;;;;;;-2.72;100.00;100465.41;6030752;28;20113;-76
2023/12/02 05:41:44;;;;;;;13.77;4.63;;;;;;;-2.74;100.00;100454.22;6038925;28;20121;-76
2023/12/02 05:44:42;;;;;;;12.90;3.92;;;;;;;-2.81;100.00;100450.22;6043561;28;20088;-76
2023/12/02 05:47:37;;;;;;;14.15;4.28;;;;;;;-2.84;100.00;100455.53;6041598;28;20092;-76
2023/12/02 05:50:33;;;;;;;15.97;4.03;;;;;;;-2.92;100.00;100457.63;6034362;28;20030;-76
2023/12/02 05:53:28;;;;;;;10.40;3.73;;;;;;;-2.93;100.00;100461.13;6036115;28;20030;-76
2023/12/02 05:56:23;;;;;;;16.23;5.13;;;;;;;-2.98;100.00;100447.53;6038652;28;20042;-76
2023/12/02 05:59:19;;;;;;;17.53;5.07;;;;;;;-2.99;100.00;100466.63;6039110;28;20109;-76
2023/12/02 06:02:15;;;;;;;14.55;4.93;;;;;;;-2.99;100.00;100447.63;6038723;28;20760;-76
2023/12/02 06:05:10;;;;;;;14.30;5.70;;;;;;;-2.88;100.00;100469.56;6033840;28;20041;-75
2023/12/02 06:08:05;;;;;;;18.60;4.53;;;;;;;-2.96;100.00;100460.44;6033374;28;20026;-75
2023/12/02 06:11:01;;;;;;;15.27;4.90;;;;;;;-3.00;100.00;100462.31;6041880;28;20296;-75
2023/12/02 06:13:57;;;;;;;18.25;4.53;;;;;;;-2.98;100.00;100472.63;6044686;28;20539;-74
2023/12/02 06:16:52;;;;;;;20.87;5.60;;;;;;;-3.09;100.00;100468.75;6038603;28;20034;-74
2023/12/02 06:19:47;;;;;;;15.10;4.40;;;;;;;-3.07;100.00;100473.84;6042488;28;20037;-74
2023/12/02 06:22:43;;;;;;;17.57;5.73;;;;;;;-3.06;100.00;100478.16;6042273;28;20052;-73
2023/12/02 06:25:38;;;;;;;14.40;4.43;;;;;;;-2.92;100.00;100473.19;6032126;28;20034;-74
2023/12/02 06:28:33;;;;;;;22.97;5.27;;;;;;;-2.89;100.00;100472.22;6034320;28;20041;-75
2023/12/02 06:31:28;;;;;;;14.93;5.33;;;;;;;-3.04;100.00;100469.38;6026403;28;20034;-74
2023/12/02 06:34:24;;;;;;;16.10;5.30;;;;;;;-2.98;100.00;100478.66;6043808;28;20123;-74
2023/12/02 06:37:19;;;;;;;17.60;4.90;;;;;;;-3.02;100.00;100470.16;6033470;28;20065;-74
2023/12/02 06:40:14;;;;;;;16.53;5.30;;;;;;;-2.93;100.00;100478.44;6036247;28;20037;-74
2023/12/02 06:43:12;;;;;;;21.40;7.03;;;;;;;-2.95;100.00;100494.09;6039189;28;20046;-74
2023/12/02 06:46:09;;;;;;;22.30;6.82;;;;;;;-3.02;100.00;100498.69;6034310;28;20088;-74
2023/12/02 06:49:04;;;;;;;24.30;6.05;;;;;;;-3.03;100.00;100501.34;6032160;28;20069;-73
2023/12/02 06:51:59;;;;;;;21.33;6.83;;;;;;;-2.93;100.00;100497.44;6031557;28;20400;-73
2023/12/02 06:54:55;;;;;;;18.77;6.83;;;;;;;-2.92;100.00;100504.31;6018490;28;20642;-73
2023/12/02 06:57:50;;;;;;;22.30;5.60;;;;;;;-2.97;100.00;100506.28;6023044;28;20069;-73
2023/12/02 07:00:45;;;;;;;26.17;8.20;;;;;;;-3.01;100.00;100515.09;6035386;28;20277;-73
2023/12/02 07:03:41;;;;;;;19.35;6.63;;;;;;;-3.03;100.00;100502.19;6035775;28;20033;-73
2023/12/02 07:06:40;;;;;;;26.73;7.43;;;;;;;-3.02;100.00;100513.41;6036131;28;20030;-73
2023/12/02 07:09:35;;;;;;;27.67;7.63;;;;;;;-2.93;100.00;100519.94;6025667;28;20069;-73
2023/12/02 07:12:30;;;;;;;25.95;8.40;;;;;;;-2.88;100.00;100518.81;6032729;28;20449;-73
2023/12/02 07:15:26;;;;;;;27.00;8.30;;;;;;;-2.75;100.00;100532.97;6038132;28;20041;-73
2023/12/02 07:18:21;;;;;;;26.83;9.00;;;;;;;-2.89;100.00;100530.13;6032550;28;20270;-73
2023/12/02 07:21:16;;;;;;;28.57;9.07;;;;;;;-2.96;100.00;100531.28;6026409;28;20046;-72
2023/12/02 07:24:12;;;;;;;30.50;8.60;;;;;;;-2.93;100.00;100535.50;6032578;28;20466;-73
2023/12/02 07:27:07;;;;;;;29.55;8.82;;;;;;;-2.87;100.00;100543.03;6038027;28;20073;-73
2023/12/02 07:30:04;;;;;;;23.10;7.33;;;;;;;-2.79;100.00;100534.00;6031083;28;20026;-73
2023/12/02 07:32:59;;;;;;;31.33;7.88;;;;;;;-2.79;100.00;100544.38;6053388;28;20028;-72
2023/12/02 07:35:54;;;;;;;24.60;7.37;;;;;;;-2.77;100.00;100539.97;6034508;28;20046;-73
2023/12/02 07:38:50;;;;;;;27.63;8.10;;;;;;;-2.88;100.00;100542.16;6034371;28;20381;-73
2023/12/02 07:41:45;;;;;;;24.30;9.43;;;;;;;-2.84;100.00;100543.75;6029940;28;20056;-72
2023/12/02 07:44:41;;;;;;;28.80;8.73;;;;;;;-2.86;100.00;100545.56;6042750;28;20431;-72
2023/12/02 07:47:36;;;;;;;22.73;7.50;;;;;;;-2.82;100.00;100546.25;6041395;28;20093;-72
2023/12/02 07:50:31;;;;;;;26.10;7.67;;;;;;;-2.75;100.00;100551.13;6025259;28;20081;-72
2023/12/02 07:53:27;;;;;;;24.90;7.33;;;;;;;-2.74;100.00;100557.16;6040171;28;20156;-72
2023/12/02 07:56:22;;;;;;;22.33;7.30;;;;;;;-2.72;100.00;100551.00;6035835;28;20045;-73
2023/12/02 07:59:17;;;;;;;22.90;7.33;;;;;;;-2.48;100.00;100555.13;6037650;28;20045;-72
2023/12/02 08:02:12;;;;;;;19.87;6.43;;;;;;;-2.54;100.00;100550.19;6031418;28;20039;-72
2023/12/02 08:05:08;;;;;;;30.13;7.87;;;;;;;-2.66;100.00;100555.91;6029856;28;20026;-72
2023/12/02 08:08:03;;;;;;;23.13;8.53;;;;;;;-2.61;100.00;100561.72;6037186;28;20470;-72
2023/12/02 08:10:59;;;;;;;20.67;7.47;;;;;;;-2.62;100.00;100554.88;6039468;28;20293;-72
2023/12/02 08:13:54;;;;;;;26.25;7.55;;;;;;;-2.69;100.00;100563.81;6037623;28;20041;-72
2023/12/02 08:16:49;;;;;;;30.73;8.50;;;;;;;-2.67;100.00;100567.22;6042342;28;20033;-72
2023/12/02 08:19:45;;;;;;;29.50;9.70;;;;;;;-2.59;100.00;100580.69;6039057;28;20069;-71
2023/12/02 08:22:41;;;;;;;27.63;8.27;;;;;;;-2.61;100.00;100579.91;6033213;28;20053;-72
2023/12/02 08:25:36;;;;;;;30.83;9.53;;;;;;;-2.62;100.00;100583.41;6030597;28;20037;-72
2023/12/02 08:28:31;;;;;;;33.67;10.40;;;;;;;-2.69;100.00;100586.34;6044130;28;20053;-72
2023/12/02 08:31:26;;;;;;;34.43;13.43;;;;;;;-2.59;100.00;100591.06;6041966;28;20073;-72
2023/12/02 08:34:22;;;;;;;26.40;9.27;;;;;;;-2.62;100.00;100580.81;6025756;28;20309;-72
2023/12/02 08:37:17;;;;;;;30.10;8.77;;;;;;;-2.65;100.00;100591.34;6033992;28;20038;-72
2023/12/02 08:40:15;;;;;;;25.10;8.07;;;;;;;-2.74;100.00;100586.53;6037734;28;20505;-72
2023/12/02 08:43:11;;;;;;;23.75;9.10;;;;;;;-2.54;100.00;100590.88;6046369;28;20116;-72
2023/12/02 08:46:12;;;;;;;31.23;8.43;;;;;;;-2.45;100.00;100595.66;6032472;28;20375;-72
2023/12/02 08:49:08;;;;;;;34.85;10.60;;;;;;;-2.60;100.00;100593.72;6037650;28;20288;-72
2023/12/02 08:52:04;;;;;;;27.63;9.17;;;;;;;-2.59;100.00;100596.25;6041498;28;20049;-72
2023/12/02 08:54:59;;;;;;;26.92;9.13;;;;;;;-2.59;100.00;100593.66;6028858;28;20082;-72
2023/12/02 08:57:54;;;;;;;24.40;9.03;;;;;;;-2.49;100.00;100581.97;6039248;28;20053;-72
2023/12/02 09:00:49;;;;;;;27.57;9.23;;;;;;;-2.34;100.00;100592.59;6036019;28;20505;-72
2023/12/02 09:03:45;;;;;;;22.60;8.60;;;;;;;-2.37;100.00;100590.13;6025724;28;20048;-72
2023/12/02 09:06:40;;;;;;;28.13;8.47;;;;;;;-2.28;100.00;100592.31;6036571;28;20037;-72
2023/12/02 09:09:36;;;;;;;29.37;8.43;;;;;;;-2.40;100.00;100585.91;6030811;28;20045;-72
2023/12/02 09:12:31;;;;;;;26.55;8.02;;;;;;;-2.41;100.00;100587.66;6035043;28;20046;-72
2023/12/02 09:15:41;;;;;;;26.57;8.70;;;;;;;-2.34;100.00;100595.19;6036605;28;20032;-72
2023/12/02 09:18:37;;;;;;;25.27;8.23;;;;;;;-2.33;100.00;100602.03;6029303;28;20289;-72
2023/12/02 09:21:42;;;;;;;25.70;9.32;;;;;;;-2.28;100.00;100606.13;6042646;28;20042;-73
2023/12/02 09:24:38;;;;;;;27.88;8.32;;;;;;;-2.35;100.00;100598.69;6023726;28;20039;-72
2023/12/02 09:28:06;;;;;;;30.67;8.15;;;;;;;-2.28;100.00;100608.72;6021196;28;20367;-72
2023/12/02 09:31:05;;;;;;;29.50;9.10;;;;;;;-2.29;100.00;100608.81;6033191;28;20038;-72
2023/12/02 09:34:02;;;;;;;29.55;8.57;;;;;;;-2.30;100.00;100594.97;6034136;28;20064;-72
2023/12/02 09:36:58;;;;;;;24.67;7.88;;;;;;;-2.12;100.00;100603.72;6029518;28;20035;-72
2023/12/02 09:40:18;;;;;;;19.90;7.30;;;;;;;-2.14;100.00;100597.72;6036101;28;20041;-72
2023/12/02 09:43:23;;;;;;;29.00;8.02;;;;;;;-2.03;100.00;100587.69;6031791;28;20022;-73
2023/12/02 09:46:30;;;;;;;24.40;7.22;;;;;;;-1.83;100.00;100595.44;6040496;28;20049;-73
2023/12/02 09:49:35;;;;;;;28.00;9.38;;;;;;;-1.94;100.00;100589.88;6030016;28;20038;-73
2023/12/02 09:52:47;;;;;;;25.67;7.75;;;;;;;-1.82;100.00;100584.09;6030404;28;20080;-73
2023/12/02 09:55:52;;;;;;;17.85;7.45;;;;;;;-1.94;100.00;100584.69;6043224;28;20490;-73
2023/12/02 09:58:49;;;;;;;26.60;8.27;;;;;;;-1.90;100.00;100586.22;6067578;28;20049;-73
2023/12/02 10:09:40;;;;;;;20.83;6.75;;;;;;;-2.00;100.00;100597.94;6025059;28;20031;-73
2023/12/02 10:12:48;;;;;;;26.08;8.95;;;;;;;-2.11;100.00;100603.63;6025209;28;20050;-73
2023/12/02 10:15:46;;;;;;;24.98;7.72;;;;;;;-2.12;100.00;100588.13;6039164;28;20037;-73
2023/12/02 10:18:52;;;;;;;23.50;8.65;;;;;;;-2.08;100.00;100598.31;6043039;28;20366;-73
2023/12/02 10:29:47;;;;;;;22.02;6.68;;;;;;;-1.92;100.00;100593.25;6031083;28;20038;-74
2023/12/02 10:33:00;;;;;;;26.15;7.90;;;;;;;-1.94;100.00;100597.66;6028090;28;20038;-73
2023/12/02 10:35:57;;;;;;;25.17;7.78;;;;;;;-1.91;100.00;100589.75;6031784;28;20064;-73
2023/12/02 10:39:16;;;;;;;21.40;8.23;;;;;;;-1.97;100.00;100584.81;6029284;28;20387;-73
2023/12/02 10:42:17;;;;;;;28.80;8.90;;;;;;;-1.92;100.00;100588.03;6034430;28;20092;-73
2023/12/02 10:45:14;;;;;;;31.73;9.35;;;;;;;-1.84;100.00;100591.13;6035998;28;20962;-74
2023/12/02 10:48:11;;;;;;;27.77;8.65;;;;;;;-1.87;100.00;100586.06;6058992;28;20466;-74
2023/12/02 10:51:07;;;;;;;28.98;8.85;;;;;;;-1.77;100.00;100576.97;6065450;28;20092;-74
2023/12/02 10:54:04;;;;;;;27.48;8.60;;;;;;;-1.86;100.00;100582.56;6034927;28;20128;-74
2023/12/02 10:57:07;;;;;;;31.40;8.50;;;;;;;-1.82;100.00;100589.28;6022893;28;20038;-74
2023/12/02 11:00:07;;;;;;;26.75;8.70;;;;;;;-1.77;100.00;100596.91;6039023;28;20085;-73
2023/12/02 11:03:18;;;;;;;27.00;9.77;;;;;;;-1.85;100.00;100592.06;6029855;28;20513;-74
2023/12/02 11:06:37;;;;;;;25.70;7.78;;;;;;;-1.79;100.00;100589.16;6021904;28;20046;-74
2023/12/02 11:09:54;;;;;;;26.55;8.32;;;;;;;-1.67;100.00;100592.94;6025931;28;20034;-74
2023/12/02 11:12:55;;;;;;;30.75;10.98;;;;;;;-1.77;100.00;100592.53;6025524;28;20451;-74
2023/12/02 11:15:58;;;;;;;36.30;8.95;;;;;;;-1.79;100.00;100589.16;6030530;28;20026;-74
2023/12/02 11:19:04;;;;;;;27.25;8.63;;;;;;;-1.80;100.00;100597.88;6025987;28;20453;-74
2023/12/02 11:22:33;;;;;;;33.88;9.95;;;;;;;-1.80;100.00;100603.09;6020575;28;20030;-74
2023/12/02 11:25:58;;;;;;;31.63;9.35;;;;;;;-1.86;100.00;100590.38;6034570;28;20042;-74
2023/12/02 11:29:10;;;;;;;29.05;8.80;;;;;;;-1.67;100.00;100592.94;6024705;28;20120;-74
2023/12/02 11:32:34;;;;;;;31.65;10.57;;;;;;;-1.66;100.00;100595.50;6039621;28;20041;-74
2023/12/02 11:35:34;;;;;;;31.05;9.20;;;;;;;-1.67;100.00;100598.16;6024254;28;20590;-74
2023/12/02 11:38:32;;;;;;;31.80;10.02;;;;;;;-1.70;100.00;100593.94;6034758;28;20390;-74
2023/12/02 11:41:41;;;;;;;36.58;10.80;;;;;;;-1.67;100.00;100606.78;6040769;28;20041;-74
2023/12/02 11:44:58;;;;;;;29.58;9.02;;;;;;;-1.67;100.00;100598.16;6036939;28;20085;-74
2023/12/02 11:48:27;;;;;;;35.05;10.02;;;;;;;-1.60;100.00;100602.97;6045627;28;20038;-74
2023/12/02 11:51:41;;;;;;;35.35;10.43;;;;;;;-1.65;100.00;100607.56;6027941;28;20048;-74
2023/12/02 11:54:45;;;;;;;31.98;8.75;;;;;;;-1.60;100.00;100608.19;6029503;28;20402;-73
2023/12/02 11:58:03;;;;;;;31.50;9.23;;;;;;;-1.50;100.00;100606.84;6031934;28;20386;-74
2023/12/02 12:01:11;;;;;;;34.60;11.00;;;;;;;-1.50;100.00;100595.59;6032950;28;20041;-74
2023/12/02 12:04:20;;;;;;;25.23;7.75;;;;;;;-1.44;100.00;100601.31;6037317;28;20167;-75
2023/12/02 12:07:44;;;;;;;39.15;11.77;;;;;;;-1.51;100.00;100589.56;6038977;28;20038;-74
2023/12/02 12:10:40;;;;;;;32.55;11.02;;;;;;;-1.58;100.00;100593.38;6034382;28;20501;-74
2023/12/02 12:13:36;;;;;;;30.65;9.13;;;;;;;-1.58;100.00;100587.31;6024274;28;20030;-74
2023/12/02 12:16:31;;;;;;;35.17;10.43;;;;;;;-1.54;100.00;100588.84;6060773;28;20037;-74
2023/12/02 12:19:28;;;;;;;36.10;11.18;;;;;;;-1.49;100.00;100594.66;6035559;28;20117;-74
2023/12/02 12:22:23;;;;;;;36.58;9.60;;;;;;;-1.43;100.00;100587.44;6039259;28;20473;-75
2023/12/02 12:25:19;;;;;;;35.53;10.47;;;;;;;-1.36;100.00;100588.81;6030293;28;20034;-74
2023/12/02 12:28:15;;;;;;;41.78;10.02;;;;;;;-1.45;100.00;100589.25;6024416;28;20034;-75
2023/12/02 12:31:10;;;;;;;29.47;9.53;;;;;;;-1.44;100.00;100590.13;6030525;28;20069;-74
2023/12/02 12:34:13;;;;;;;27.40;9.73;;;;;;;-1.43;100.00;100599.56;6034171;28;20054;-74
2023/12/02 12:37:08;;;;;;;21.63;8.07;;;;;;;-1.37;100.00;100613.13;6039218;28;20292;-74
2023/12/02 12:40:05;;;;;;;29.83;9.63;;;;;;;-1.39;100.00;100603.72;6031963;28;20030;-74
2023/12/02 12:43:01;;;;;;;35.53;11.25;;;;;;;-1.40;100.00;100610.69;6034101;28;20613;-74
2023/12/02 12:45:56;;;;;;;29.50;10.43;;;;;;;-1.25;100.00;100616.91;6030840;28;20041;-74
2023/12/02 12:48:53;;;;;;;34.95;10.43;;;;;;;-1.34;100.00;100618.19;6038131;28;20039;-74
2023/12/02 12:51:51;;;;;;;31.90;9.82;;;;;;;-1.35;100.00;100619.09;6023398;28;20037;-74
2023/12/02 12:54:51;;;;;;;34.10;10.15;;;;;;;-1.35;100.00;100624.31;6023800;28;20478;-74
2023/12/02 12:58:07;;;;;;;31.60;9.13;;;;;;;-1.29;100.00;100624.03;6030988;28;20038;-74
2023/12/02 13:01:03;;;;;;;36.35;10.50;;;;;;;-1.42;100.00;100619.47;6037718;28;20086;-74
2023/12/02 13:04:33;;;;;;;32.08;9.93;;;;;;;-1.32;100.00;100626.75;6038029;28;20038;-74
2023/12/02 13:07:40;;;;;;;29.05;9.40;;;;;;;-1.31;100.00;100628.47;6032611;28;20108;-74
2023/12/02 13:10:35;;;;;;;33.25;10.05;;;;;;;-1.28;100.00;100625.69;6025442;28;20065;-74
2023/12/02 13:13:31;;;;;;;35.47;9.55;;;;;;;-1.28;100.00;100637.88;6027113;28;20038;-74
2023/12/02 13:16:28;;;;;;;32.33;10.35;;;;;;;-1.41;100.00;100614.19;6028173;28;20497;-74
2023/12/02 13:19:24;;;;;;;31.15;10.35;;;;;;;-1.36;100.00;100635.59;6032313;28;20172;-75
2023/12/02 13:22:20;;;;;;;34.50;10.02;;;;;;;-1.40;100.00;100643.63;6041473;28;20030;-74
2023/12/02 13:25:24;;;;;;;31.58;9.60;;;;;;;-1.40;100.00;100639.28;6029296;28;20081;-75
2023/12/02 13:28:37;;;;;;;31.80;10.32;;;;;;;-1.37;100.00;100639.16;6020512;28;20068;-76
2023/12/02 13:31:38;;;;;;;36.95;10.40;;;;;;;-1.40;100.00;100649.69;6035468;28;20036;-74
2023/12/02 13:35:00;;;;;;;35.00;9.95;;;;;;;-1.34;100.00;100659.81;6036144;28;20075;-74
2023/12/02 13:38:20;;;;;;;27.05;8.68;;;;;;;-1.32;100.00;100665.78;6028176;28;20054;-74
2023/12/02 13:41:28;;;;;;;31.20;10.25;;;;;;;-1.42;100.00;100646.31;6036064;28;20061;-74
2023/12/02 13:44:30;;;;;;;29.65;10.43;;;;;;;-1.33;100.00;100666.66;6042105;28;20505;-75
2023/12/02 13:47:51;;;;;;;32.97;9.50;;;;;;;-1.42;100.00;100671.47;6030629;28;20030;-75